Time;durP1;ratioP1;P1;durP2;ratioP2;P2;SDS_P1;SDS_P2;PMS_P1;PMS_P2;Temp;Humidity;BMP_temperature;BMP_pressure;BME280_temperature;BME280_humidity;BME280_pressure;Samples;Min_cycle;Max_cycle;Signal;HPM_P1;HPM_P2
2023/12/23 00:02:21;;;;;;;4.82;2.38;;;;;;;24.76;36.12;99274.31;4987500;28;20425;-43
2023/12/23 00:04:47;;;;;;;4.93;2.92;;;;;;;24.75;36.25;99283.84;4983847;28;20474;-44
2023/12/23 00:07:14;;;;;;;4.70;2.25;;;;;;;24.76;36.22;99274.31;4986369;28;20037;-43
2023/12/23 00:09:42;;;;;;;5.13;2.42;;;;;;;24.73;36.06;99286.34;4983283;28;20385;-43
2023/12/23 00:12:11;;;;;;;4.55;2.42;;;;;;;24.73;36.31;99275.28;4984328;28;20053;-43
2023/12/23 00:14:36;;;;;;;4.78;2.40;;;;;;;24.72;36.28;99296.63;4981136;28;20022;-43
2023/12/23 00:17:02;;;;;;;4.72;2.20;;;;;;;24.75;36.21;99299.63;4982726;28;20030;-43
2023/12/23 00:19:28;;;;;;;4.10;2.10;;;;;;;24.76;36.15;99295.63;4984354;28;20398;-44
2023/12/23 00:21:54;;;;;;;4.50;2.08;;;;;;;24.79;36.00;99294.59;4984200;28;20050;-44
2023/12/23 00:24:20;;;;;;;4.40;2.17;;;;;;;24.76;36.10;99301.91;4987301;28;20017;-45
2023/12/23 00:26:45;;;;;;;4.63;2.33;;;;;;;24.76;36.11;99298.38;4998888;28;20023;-43
2023/12/23 00:29:10;;;;;;;4.72;2.30;;;;;;;24.78;36.15;99301.41;4987341;28;20541;-43
2023/12/23 00:31:36;;;;;;;4.50;2.10;;;;;;;24.80;36.10;99299.63;4984805;28;20026;-43
2023/12/23 00:34:01;;;;;;;4.38;2.10;;;;;;;24.79;36.16;99300.13;4982983;28;20015;-43
2023/12/23 00:36:27;;;;;;;4.63;2.20;;;;;;;24.76;36.10;99295.63;4981621;28;20045;-44
2023/12/23 00:38:52;;;;;;;4.30;2.00;;;;;;;24.79;35.96;99308.41;4984002;28;20030;-45
2023/12/23 00:41:18;;;;;;;4.60;2.17;;;;;;;24.76;36.24;99304.66;4987062;28;20593;-44
2023/12/23 00:43:43;;;;;;;4.35;2.13;;;;;;;24.75;36.11;99299.63;4981195;28;20033;-44
2023/12/23 00:46:08;;;;;;;4.70;2.10;;;;;;;24.72;36.05;99304.91;4984264;28;20026;-44
2023/12/23 00:48:34;;;;;;;4.30;2.00;;;;;;;24.75;35.95;99311.44;4983635;28;20025;-44
2023/12/23 00:50:59;;;;;;;3.97;1.92;;;;;;;24.73;36.24;99316.69;4989300;28;20110;-43
2023/12/23 00:53:25;;;;;;;4.05;1.92;;;;;;;24.75;36.16;99316.19;4982730;28;20026;-45
2023/12/23 00:55:51;;;;;;;4.07;1.80;;;;;;;24.73;35.97;99319.47;4982819;28;20022;-43
2023/12/23 00:58:17;;;;;;;3.72;1.90;;;;;;;24.73;36.05;99324.97;4981824;28;20077;-43
2023/12/23 01:00:42;;;;;;;3.95;1.65;;;;;;;24.71;36.27;99344.78;4985009;28;20040;-45
2023/12/23 01:03:07;;;;;;;3.88;1.73;;;;;;;24.71;36.17;99344.78;4982475;28;20096;-43
2023/12/23 01:05:33;;;;;;;3.92;1.60;;;;;;;24.71;36.17;99338.53;4982200;28;20034;-44
2023/12/23 01:07:58;;;;;;;3.92;1.67;;;;;;;24.72;36.04;99353.81;4982264;28;20028;-43
2023/12/23 01:10:26;;;;;;;3.72;1.70;;;;;;;24.76;35.96;99362.63;4985515;28;20025;-44
2023/12/23 01:12:51;;;;;;;;;;;;;;;24.74;36.04;99367.88;4988298;28;20524;-46
2023/12/23 01:15:16;;;;;;;3.45;1.50;;;;;;;24.75;35.90;99372.16;4987720;28;19913;-44
2023/12/23 01:17:42;;;;;;;3.75;1.80;;;;;;;24.72;36.01;99371.16;4983505;28;20018;-43
2023/12/23 01:20:08;;;;;;;4.00;1.80;;;;;;;24.76;36.09;99383.94;4984592;28;20034;-43
2023/12/23 01:22:33;;;;;;;3.38;1.60;;;;;;;24.73;35.94;99382.94;4984300;28;20105;-43
2023/12/23 01:24:58;;;;;;;3.92;1.70;;;;;;;24.73;35.93;99388.47;4981585;28;20030;-44
2023/12/23 01:27:24;;;;;;;3.33;1.58;;;;;;;24.70;36.18;99404.00;4984444;28;20022;-44
2023/12/23 01:29:50;;;;;;;3.90;1.70;;;;;;;24.73;35.91;99399.50;4978749;28;20804;-44
2023/12/23 01:32:15;;;;;;;3.75;1.67;;;;;;;24.72;36.08;99395.22;4980708;28;20022;-46
2023/12/23 01:34:42;;;;;;;3.55;1.60;;;;;;;24.71;35.98;99394.47;4982252;28;20482;-43
2023/12/23 01:37:07;;;;;;;3.08;1.50;;;;;;;24.71;36.08;99399.25;4983007;28;20026;-44
2023/12/23 01:39:33;;;;;;;3.65;1.60;;;;;;;24.69;35.96;99399.72;4982332;28;20041;-44
2023/12/23 01:41:58;;;;;;;2.78;1.33;;;;;;;24.67;36.00;99396.72;4986678;28;20045;-44
2023/12/23 01:44:23;;;;;;;4.13;1.48;;;;;;;24.69;35.88;99399.72;4983673;28;20023;-44
2023/12/23 01:46:49;;;;;;;3.33;1.30;;;;;;;24.67;36.01;99391.19;4985914;28;20549;-43
2023/12/23 01:49:14;;;;;;;4.00;1.55;;;;;;;24.68;36.00;99395.47;5010668;28;20022;-45
2023/12/23 01:51:39;;;;;;;2.85;1.35;;;;;;;24.69;35.93;99396.22;4983159;28;20386;-43
2023/12/23 01:54:05;;;;;;;3.38;1.52;;;;;;;24.67;36.00;99391.19;4982246;28;20027;-44
2023/12/23 01:56:31;;;;;;;3.33;1.50;;;;;;;24.69;35.85;99396.22;4985523;28;20069;-43
2023/12/23 01:58:57;;;;;;;3.35;1.50;;;;;;;24.66;36.17;99402.72;4984993;28;20106;-43
2023/12/23 02:01:23;;;;;;;2.95;1.40;;;;;;;24.68;35.88;99394.72;5016805;28;20022;-44
2023/12/23 02:03:48;;;;;;;3.00;1.30;;;;;;;24.69;36.15;99393.47;4981786;28;20085;-43
2023/12/23 02:06:14;;;;;;;3.17;1.48;;;;;;;24.67;36.05;99404.25;4986385;28;20022;-43
2023/12/23 02:08:39;;;;;;;3.70;1.60;;;;;;;24.67;36.06;99399.47;4984869;28;20018;-45
2023/12/23 02:11:08;;;;;;;2.70;1.30;;;;;;;24.69;35.98;99404.50;4984441;28;20038;-43
2023/12/23 02:13:41;;;;;;;2.72;1.25;;;;;;;24.67;36.12;99409.75;4984474;28;20037;-44
2023/12/23 02:16:06;;;;;;;2.88;1.30;;;;;;;24.68;36.09;99414.78;4996495;28;20141;-43
2023/12/23 02:18:31;;;;;;;3.38;1.40;;;;;;;24.68;36.14;99400.97;4993843;28;20051;-43
2023/12/23 02:20:57;;;;;;;2.58;1.13;;;;;;;24.69;36.08;99396.22;4983805;28;20034;-44
2023/12/23 02:23:22;;;;;;;2.70;1.23;;;;;;;24.67;36.06;99387.69;4982192;28;20474;-43
2023/12/23 02:25:52;;;;;;;3.05;1.30;;;;;;;24.65;35.94;99387.41;4980794;28;20022;-43
2023/12/23 02:28:17;;;;;;;2.60;1.20;;;;;;;24.66;36.04;99386.94;5011932;28;20037;-43
2023/12/23 02:30:43;;;;;;;3.75;1.40;;;;;;;24.65;36.00;99384.66;4980303;28;20026;-43
2023/12/23 02:33:08;;;;;;;2.85;1.33;;;;;;;24.64;36.00;99383.91;4983565;28;20042;-43
2023/12/23 02:35:33;;;;;;;2.35;1.20;;;;;;;24.65;35.66;99395.69;5010045;28;20023;-44
2023/12/23 02:37:59;;;;;;;2.05;1.10;;;;;;;24.66;35.94;99397.22;5011483;28;20044;-43
2023/12/23 02:40:24;;;;;;;2.85;1.15;;;;;;;24.65;36.09;99390.19;4985230;28;20053;-45
2023/12/23 02:42:49;;;;;;;2.90;1.30;;;;;;;24.66;36.00;99399.97;4989016;28;20034;-46
2023/12/23 02:45:15;;;;;;;2.30;1.10;;;;;;;24.66;36.12;99397.97;4991344;28;20113;-43
2023/12/23 02:47:40;;;;;;;2.28;1.20;;;;;;;24.65;35.92;99401.22;4986155;28;20393;-44
2023/12/23 02:50:06;;;;;;;2.85;1.20;;;;;;;24.66;35.99;99403.47;4986341;28;20030;-43
2023/12/23 02:52:31;;;;;;;2.50;1.10;;;;;;;24.62;36.22;99400.19;4988078;28;20021;-43
2023/12/23 02:54:57;;;;;;;2.50;1.20;;;;;;;24.62;36.17;99397.44;4982731;28;20018;-44
2023/12/23 02:57:22;;;;;;;2.80;1.17;;;;;;;24.64;36.08;99399.72;4985071;28;20035;-44
2023/12/23 02:59:47;;;;;;;2.22;1.10;;;;;;;24.65;36.16;99401.22;4984753;28;20023;-43
2023/12/23 03:02:13;;;;;;;2.58;1.10;;;;;;;24.66;36.12;99403.47;4984563;28;20037;-43
2023/12/23 03:04:39;;;;;;;1.95;1.02;;;;;;;24.64;36.13;99405.22;4983692;28;20466;-44
2023/12/23 03:07:05;;;;;;;2.17;1.13;;;;;;;24.65;36.02;99406.75;4984331;28;20022;-43
2023/12/23 03:09:30;;;;;;;2.97;1.20;;;;;;;24.64;36.02;99410.75;4987750;28;20053;-45
2023/12/23 03:11:55;;;;;;;2.35;1.10;;;;;;;24.64;36.19;99405.22;4987775;28;20022;-43
2023/12/23 03:14:21;;;;;;;2.78;1.10;;;;;;;24.67;36.02;99393.19;4987728;28;20022;-44
2023/12/23 03:16:46;;;;;;;2.00;1.00;;;;;;;24.65;36.06;99404.72;4988288;28;20018;-43
2023/12/23 03:19:12;;;;;;;1.98;1.10;;;;;;;24.65;36.09;99401.22;4984936;28;20096;-43
2023/12/23 03:21:44;;;;;;;2.33;1.10;;;;;;;24.67;35.88;99401.47;4984075;28;20023;-43
2023/12/23 03:24:09;;;;;;;1.98;0.93;;;;;;;24.64;36.04;99399.72;4984149;28;20026;-43
2023/12/23 03:26:35;;;;;;;2.22;1.10;;;;;;;24.63;36.09;99390.69;4983331;28;20438;-44
2023/12/23 03:29:00;;;;;;;1.77;1.02;;;;;;;24.65;36.14;99395.69;4986942;28;20557;-44
2023/12/23 03:31:25;;;;;;;2.33;1.10;;;;;;;24.62;36.02;99396.69;4986371;28;20089;-44
2023/12/23 03:33:51;;;;;;;1.33;0.90;;;;;;;24.65;35.90;99395.69;4984940;28;20385;-44
2023/12/23 03:36:17;;;;;;;2.13;1.10;;;;;;;24.64;36.08;99389.44;4988215;28;20037;-44
2023/12/23 03:38:42;;;;;;;1.95;1.00;;;;;;;24.66;35.90;99408.25;4987253;28;20091;-44
2023/12/23 03:41:10;;;;;;;1.50;0.93;;;;;;;24.65;35.84;99401.22;4984757;28;20030;-46
2023/12/23 03:43:35;;;;;;;1.70;1.00;;;;;;;24.66;35.89;99408.25;4983147;28;20113;-45
2023/12/23 03:46:01;;;;;;;2.42;1.05;;;;;;;24.64;36.05;99408.00;4983748;28;20035;-43
2023/12/23 03:48:26;;;;;;;2.10;1.00;;;;;;;24.67;36.02;99402.22;4984434;28;20025;-44
2023/12/23 03:50:51;;;;;;;1.50;0.88;;;;;;;24.66;35.83;99408.25;4980365;28;20380;-43
2023/12/23 03:53:17;;;;;;;1.77;0.90;;;;;;;24.67;35.82;99401.47;4983507;28;20539;-43
2023/12/23 03:55:42;;;;;;;1.55;0.95;;;;;;;24.67;35.96;99382.91;4984896;28;20026;-44
2023/12/23 03:58:08;;;;;;;1.98;1.00;;;;;;;24.68;35.95;99389.19;4984391;28;20030;-45
2023/12/23 04:00:33;;;;;;;1.10;0.90;;;;;;;24.70;35.89;99370.13;4981629;28;20041;-43
2023/12/23 04:02:58;;;;;;;2.13;1.10;;;;;;;24.69;35.76;99380.41;4985829;28;20028;-44
2023/12/23 04:05:24;;;;;;;1.20;0.82;;;;;;;24.70;35.78;99372.88;4981191;28;20437;-43
2023/12/23 04:07:49;;;;;;;1.98;1.08;;;;;;;24.67;35.80;99388.44;4985197;28;20028;-44
2023/12/23 04:10:15;;;;;;;2.45;1.00;;;;;;;24.68;35.76;99378.91;4981089;28;20030;-43
2023/12/23 04:12:41;;;;;;;1.92;1.00;;;;;;;24.67;35.99;99366.34;4984053;28;20094;-43
2023/12/23 04:15:07;;;;;;;2.47;1.00;;;;;;;24.65;35.95;99363.34;4988173;28;20076;-43
2023/12/23 04:17:33;;;;;;;1.73;0.80;;;;;;;24.66;35.88;99361.34;4983847;28;20050;-44
2023/12/23 04:19:58;;;;;;;1.50;0.80;;;;;;;24.67;35.96;99349.03;4984006;28;20105;-43
2023/12/23 04:22:23;;;;;;;1.98;1.00;;;;;;;24.64;35.81;99350.78;4987374;28;20027;-44
2023/12/23 04:24:49;;;;;;;4.93;1.15;;;;;;;24.66;35.94;99361.34;4984098;28;20040;-45
2023/12/23 04:27:14;;;;;;;4.93;1.00;;;;;;;24.65;35.95;99368.09;4981883;28;20653;-45
2023/12/23 04:29:39;;;;;;;1.55;0.95;;;;;;;24.64;35.92;99364.59;4985193;28;20030;-43
2023/12/23 04:32:05;;;;;;;1.77;0.80;;;;;;;24.64;36.11;99361.06;4982789;28;20033;-43
2023/12/23 04:34:30;;;;;;;1.67;0.90;;;;;;;24.64;35.83;99350.03;4981556;28;20442;-43
2023/12/23 04:36:55;;;;;;;1.63;0.98;;;;;;;24.61;35.80;99340.75;4976380;28;20031;-44
2023/12/23 04:39:21;;;;;;;3.05;1.00;;;;;;;24.62;35.85;99352.53;4984570;28;20030;-45
2023/12/23 04:41:49;;;;;;;2.20;0.90;;;;;;;24.62;36.04;99352.53;4978767;28;20034;-45
2023/12/23 04:44:14;;;;;;;2.42;1.10;;;;;;;24.65;35.91;99348.78;4984209;28;20441;-43
2023/12/23 04:46:41;;;;;;;3.97;1.08;;;;;;;24.66;36.04;99347.53;5015872;28;20046;-44
2023/12/23 04:49:07;;;;;;;1.42;0.80;;;;;;;24.65;36.22;99355.06;4987353;28;20022;-43
2023/12/23 04:51:32;;;;;;;2.10;0.95;;;;;;;24.64;36.27;99347.28;4986088;28;20014;-45
2023/12/23 04:53:57;;;;;;;2.30;1.00;;;;;;;24.61;36.09;99346.25;4987264;28;20026;-44
2023/12/23 04:56:23;;;;;;;2.53;1.00;;;;;;;24.61;36.05;99340.75;4982136;28;20605;-43
2023/12/23 04:58:48;;;;;;;3.00;1.00;;;;;;;24.64;36.26;99333.47;4988210;28;20027;-44
2023/12/23 05:01:13;;;;;;;2.20;1.00;;;;;;;24.62;36.56;99342.25;4985045;28;20030;-43
2023/12/23 05:03:39;;;;;;;1.98;1.02;;;;;;;24.65;36.03;99341.25;4980884;28;20552;-43
2023/12/23 05:06:05;;;;;;;2.15;0.90;;;;;;;24.63;36.26;99334.72;4983806;28;20023;-45
2023/12/23 05:08:32;;;;;;;3.28;0.95;;;;;;;24.59;36.21;99331.44;4986240;28;20152;-43
2023/12/23 05:10:57;;;;;;;3.00;0.90;;;;;;;24.61;36.27;99331.72;4982626;28;20018;-44
2023/12/23 05:13:23;;;;;;;1.98;0.95;;;;;;;24.59;36.24;99331.44;4987614;28;20150;-44
2023/12/23 05:15:48;;;;;;;1.38;0.77;;;;;;;24.62;36.11;99330.47;4983779;28;20029;-43
2023/12/23 05:18:13;;;;;;;2.63;0.80;;;;;;;24.59;36.38;99325.94;4983385;28;20034;-44
2023/12/23 05:20:39;;;;;;;4.45;0.90;;;;;;;24.59;36.29;99325.94;4986040;28;20123;-44
2023/12/23 05:23:04;;;;;;;3.30;0.90;;;;;;;24.57;36.40;99318.19;4979031;28;20035;-43
2023/12/23 05:25:30;;;;;;;3.33;0.88;;;;;;;24.58;36.56;99329.97;4978956;28;20030;-44
2023/12/23 05:27:55;;;;;;;2.78;0.90;;;;;;;24.64;36.09;99330.72;4984989;28;20482;-43
2023/12/23 05:30:20;;;;;;;2.92;0.90;;;;;;;24.60;36.36;99344.75;5015954;28;20022;-43
2023/12/23 05:32:46;;;;;;;2.88;1.02;;;;;;;24.61;36.31;99340.75;4982315;28;20050;-43
2023/12/23 05:35:11;;;;;;;3.72;1.23;;;;;;;24.64;36.38;99344.50;4983545;28;20023;-46
2023/12/23 05:37:37;;;;;;;5.15;1.20;;;;;;;24.67;36.44;99349.03;4985249;28;20068;-48
2023/12/23 05:40:02;;;;;;;9.25;1.45;;;;;;;24.67;36.64;99338.00;4986856;28;20038;-47
2023/12/23 05:42:28;;;;;;;5.82;1.55;;;;;;;24.76;36.73;99340.53;4980411;28;20030;-46
2023/12/23 05:44:53;;;;;;;8.35;1.50;;;;;;;24.83;36.88;99340.03;4988106;28;20044;-44
2023/12/23 05:47:19;;;;;;;4.25;1.30;;;;;;;24.77;36.99;99346.81;4980152;28;20145;-43
2023/12/23 05:49:45;;;;;;;4.97;1.20;;;;;;;24.73;36.93;99345.06;4981007;28;20065;-43
2023/12/23 05:52:10;;;;;;;6.57;1.45;;;;;;;24.81;36.80;99336.25;4980406;28;20061;-43
2023/12/23 05:54:35;;;;;;;10.48;1.80;;;;;;;24.76;37.01;99342.56;4985409;28;20025;-42
2023/12/23 05:57:01;;;;;;;3.95;1.17;;;;;;;24.76;37.23;99340.53;4982163;28;20034;-40
2023/12/23 05:59:26;;;;;;;4.63;1.30;;;;;;;24.78;36.86;99331.78;4984553;28;21023;-41
2023/12/23 06:01:52;;;;;;;5.03;1.27;;;;;;;24.75;36.92;99336.28;4980459;28;20019;-39
2023/12/23 06:04:17;;;;;;;3.63;1.27;;;;;;;24.72;36.90;99353.81;4983580;28;20022;-43
2023/12/23 06:06:43;;;;;;;6.72;1.08;;;;;;;24.73;36.94;99338.78;4979214;28;20037;-42
2023/12/23 06:09:08;;;;;;;3.90;1.10;;;;;;;24.73;36.90;99349.81;4981935;28;20027;-39
2023/12/23 06:11:34;;;;;;;3.83;1.13;;;;;;;24.72;36.87;99340.78;4984084;28;20053;-41
2023/12/23 06:13:59;;;;;;;3.78;1.30;;;;;;;24.67;36.92;99338.00;4977129;28;20023;-40
2023/12/23 06:16:24;;;;;;;3.83;1.30;;;;;;;24.66;36.63;99333.72;4982037;28;20371;-48
2023/12/23 06:18:50;;;;;;;3.47;1.02;;;;;;;24.66;36.86;99325.47;4986313;28;20026;-40
2023/12/23 06:21:15;;;;;;;4.43;1.20;;;;;;;24.60;36.67;99330.97;4981357;28;20041;-42
2023/12/23 06:23:41;;;;;;;3.70;1.40;;;;;;;24.59;36.70;99325.94;4983758;28;20471;-43
2023/12/23 06:26:09;;;;;;;9.95;1.52;;;;;;;24.60;36.77;99333.72;4980719;28;20065;-45
2023/12/23 06:28:34;;;;;;;5.22;1.20;;;;;;;24.67;36.53;99327.72;4982607;28;20062;-45
2023/12/23 06:30:59;;;;;;;2.13;1.00;;;;;;;24.71;36.77;99333.75;4987551;28;20492;-45
2023/12/23 06:33:25;;;;;;;3.65;1.10;;;;;;;24.68;36.40;99348.53;4981764;28;20029;-44
2023/12/23 06:35:50;;;;;;;2.50;1.10;;;;;;;24.64;36.42;99350.78;4979607;28;20026;-46
2023/12/23 06:38:16;;;;;;;3.60;1.13;;;;;;;24.61;36.33;99354.53;4984240;28;20541;-47
2023/12/23 06:40:42;;;;;;;3.47;1.30;;;;;;;24.56;36.34;99354.53;4986385;28;20551;-45
2023/12/23 06:43:07;;;;;;;4.97;1.40;;;;;;;24.54;36.20;99362.56;5010928;28;20034;-44
2023/12/23 06:45:33;;;;;;;5.03;1.20;;;;;;;24.50;36.41;99359.28;4980982;28;20089;-47
2023/12/23 06:47:58;;;;;;;2.83;1.00;;;;;;;24.48;36.24;99350.75;4980495;28;20506;-45
2023/12/23 06:50:24;;;;;;;5.72;1.20;;;;;;;24.47;36.35;99357.50;4983982;28;20031;-46
2023/12/23 06:52:50;;;;;;;3.22;1.10;;;;;;;24.48;36.27;99348.00;4982732;28;20030;-45
2023/12/23 06:55:15;;;;;;;4.13;1.33;;;;;;;24.48;36.25;99348.00;4979753;28;20036;-44
2023/12/23 06:57:40;;;;;;;2.55;1.10;;;;;;;24.47;36.18;99358.28;4980373;28;20027;-45
2023/12/23 07:00:07;;;;;;;2.50;1.08;;;;;;;24.44;36.38;99353.75;4979052;28;20137;-44
2023/12/23 07:02:32;;;;;;;2.87;1.10;;;;;;;24.44;36.17;99359.25;4983820;28;20511;-44
2023/12/23 07:04:58;;;;;;;3.35;1.25;;;;;;;24.42;36.55;99366.53;4982441;28;20269;-44
2023/12/23 07:07:23;;;;;;;2.28;1.05;;;;;;;24.41;36.51;99365.75;4984013;28;20490;-47
2023/12/23 07:09:49;;;;;;;4.35;1.23;;;;;;;24.37;36.60;99363.28;4983430;28;20034;-47
2023/12/23 07:12:14;;;;;;;2.88;1.20;;;;;;;24.36;36.84;99374.78;4979489;28;20030;-44
2023/12/23 07:14:39;;;;;;;2.83;1.15;;;;;;;24.36;36.73;99378.31;4988773;28;20068;-48
2023/12/23 07:17:05;;;;;;;2.40;1.00;;;;;;;24.35;36.96;99373.28;4982342;28;20023;-45
2023/12/23 07:19:30;;;;;;;4.43;1.33;;;;;;;24.32;36.81;99364.00;4988054;28;20038;-48
2023/12/23 07:21:55;;;;;;;3.65;1.30;;;;;;;24.26;36.91;99371.47;4980160;28;20389;-44
2023/12/23 07:24:21;;;;;;;3.10;1.10;;;;;;;24.26;36.83;99376.25;4983333;28;20069;-54
2023/12/23 07:26:46;;;;;;;5.82;1.17;;;;;;;24.18;36.66;99378.69;4985610;28;20026;-48
2023/12/23 07:29:12;;;;;;;3.45;1.10;;;;;;;24.27;36.49;99384.03;4988809;28;20026;-45
2023/12/23 07:31:37;;;;;;;3.65;1.17;;;;;;;24.21;36.52;99391.47;5017401;28;20509;-48
2023/12/23 07:34:06;;;;;;;4.00;0.95;;;;;;;24.26;36.47;99387.28;4989236;28;20030;-45
2023/12/23 07:36:31;;;;;;;4.15;1.10;;;;;;;24.21;36.92;99397.00;4983873;28;20508;-49
2023/12/23 07:38:56;;;;;;;4.45;1.20;;;;;;;24.19;36.72;99382.94;4986119;28;20023;-45
2023/12/23 07:41:22;;;;;;;2.55;1.00;;;;;;;24.21;36.55;99385.22;4986822;28;20030;-48
2023/12/23 07:43:47;;;;;;;3.72;0.90;;;;;;;24.19;36.53;99376.69;4985745;28;20034;-48
2023/12/23 07:46:13;;;;;;;3.10;1.10;;;;;;;24.22;36.35;99387.47;4982979;28;20027;-45
2023/12/23 07:48:38;;;;;;;5.18;1.05;;;;;;;24.22;36.29;99404.03;4988618;28;20014;-45
2023/12/23 07:51:07;;;;;;;2.72;1.00;;;;;;;24.26;36.39;99410.09;4988114;28;20035;-51
2023/12/23 07:53:33;;;;;;;2.08;1.00;;;;;;;24.22;36.35;99401.28;4989822;28;20035;-46
2023/12/23 07:55:58;;;;;;;3.38;1.00;;;;;;;24.25;35.86;99408.59;4985966;28;20023;-45
2023/12/23 07:58:23;;;;;;;3.47;0.98;;;;;;;24.22;36.03;99398.50;4986797;28;20053;-54
2023/12/23 08:00:49;;;;;;;3.35;1.08;;;;;;;24.20;35.78;99409.28;4992461;28;20026;-45
2023/12/23 08:03:14;;;;;;;2.35;0.95;;;;;;;24.25;36.17;99418.88;4984996;28;20030;-48
2023/12/23 08:05:39;;;;;;;5.03;1.00;;;;;;;24.27;36.06;99428.16;4984627;28;20023;-45
2023/12/23 08:08:06;;;;;;;2.75;0.90;;;;;;;24.25;36.02;99422.38;4981397;28;20413;-45
2023/12/23 08:10:32;;;;;;;2.67;0.80;;;;;;;24.27;35.97;99424.66;4982729;28;20038;-48
2023/12/23 08:12:57;;;;;;;3.13;0.90;;;;;;;24.28;35.98;99417.88;4983069;28;20022;-45
2023/12/23 08:15:22;;;;;;;2.20;0.90;;;;;;;24.28;36.01;99413.13;4985310;28;20034;-46
2023/12/23 08:17:49;;;;;;;1.63;0.70;;;;;;;24.26;35.92;99415.63;4985666;28;20453;-47
2023/12/23 08:20:15;;;;;;;1.35;0.73;;;;;;;24.28;35.79;99410.34;4987514;28;20497;-47
2023/12/23 08:22:41;;;;;;;2.65;0.77;;;;;;;24.28;35.72;99421.41;4984805;28;20126;-46
2023/12/23 08:25:07;;;;;;;2.47;0.95;;;;;;;24.30;35.83;99429.19;4984598;28;20018;-51
2023/12/23 08:27:32;;;;;;;5.80;1.10;;;;;;;24.39;36.04;99435.22;4976008;28;20162;-46
2023/12/23 08:29:57;;;;;;;3.10;0.80;;;;;;;24.33;35.70;99448.25;4984316;28;20027;-46
2023/12/23 08:32:23;;;;;;;4.53;0.90;;;;;;;24.23;35.86;99441.38;4981880;28;20418;-51
2023/12/23 08:34:48;;;;;;;4.43;1.20;;;;;;;24.18;35.99;99441.38;4980980;28;20040;-50
2023/12/23 08:37:13;;;;;;;2.55;0.80;;;;;;;24.30;36.11;99438.22;4984108;28;20051;-44
2023/12/23 08:39:39;;;;;;;2.42;0.77;;;;;;;24.31;36.04;99433.44;4985412;28;20026;-48
2023/12/23 08:42:04;;;;;;;2.72;0.90;;;;;;;24.33;35.85;99447.50;4985204;28;20035;-47
2023/12/23 08:44:30;;;;;;;3.55;0.80;;;;;;;24.33;35.78;99431.72;4983838;28;20494;-46
2023/12/23 08:46:55;;;;;;;2.35;1.00;;;;;;;24.22;35.68;99428.84;4990259;28;20040;-49
2023/12/23 08:49:20;;;;;;;4.97;1.00;;;;;;;24.31;35.85;99427.94;4983117;28;20518;-47
2023/12/23 08:51:46;;;;;;;2.25;1.13;;;;;;;24.27;35.67;99432.91;4980371;28;20031;-43
2023/12/23 08:54:12;;;;;;;1.73;0.77;;;;;;;24.19;35.37;99432.59;4981142;28;20040;-48
2023/12/23 08:56:37;;;;;;;2.85;1.05;;;;;;;24.14;35.68;99429.81;4981905;28;20557;-48
2023/12/23 08:59:03;;;;;;;2.13;0.90;;;;;;;24.24;35.37;99433.91;4981534;28;20056;-48
2023/12/23 09:01:28;;;;;;;2.70;1.10;;;;;;;24.29;34.82;99436.69;4983503;28;20045;-50
2023/12/23 09:03:54;;;;;;;1.33;0.68;;;;;;;24.08;34.89;99432.53;4983461;28;20023;-43
2023/12/23 09:06:19;;;;;;;1.88;1.00;;;;;;;24.10;34.98;99430.03;4986303;28;20029;-44
2023/12/23 09:08:44;;;;;;;2.63;1.00;;;;;;;24.09;34.75;99431.28;4984448;28;20035;-43
2023/12/23 09:11:10;;;;;;;2.35;0.95;;;;;;;24.08;34.62;99440.06;4983966;28;20469;-53
2023/12/23 09:13:36;;;;;;;2.20;0.90;;;;;;;23.98;34.82;99456.03;4982096;28;20030;-47
2023/12/23 09:16:03;;;;;;;2.78;1.10;;;;;;;23.97;34.45;99458.03;4981328;28;20019;-40
2023/12/23 09:18:28;;;;;;;3.40;1.10;;;;;;;23.95;34.51;99468.03;4980605;28;20031;-44
2023/12/23 09:20:54;;;;;;;2.88;1.10;;;;;;;24.03;34.02;99467.09;4981691;28;20382;-43
2023/12/23 09:23:19;;;;;;;3.28;1.20;;;;;;;23.99;34.03;99472.06;4984762;28;20088;-42
2023/12/23 09:25:44;;;;;;;4.95;1.55;;;;;;;23.96;34.22;99475.84;4985942;28;20031;-46
2023/12/23 09:28:10;;;;;;;3.60;1.65;;;;;;;23.95;34.01;99487.34;4983650;28;20110;-47
2023/12/23 09:30:35;;;;;;;4.00;1.83;;;;;;;23.97;33.98;99479.34;4982083;28;20032;-48
2023/12/23 09:33:00;;;;;;;4.57;2.20;;;;;;;24.01;34.00;99479.84;4983217;28;20527;-49
2023/12/23 09:35:26;;;;;;;4.65;2.17;;;;;;;23.97;34.00;99476.59;4985078;28;20023;-48
2023/12/23 09:37:51;;;;;;;7.25;1.98;;;;;;;23.94;33.99;99474.81;4982279;28;20445;-44
2023/12/23 09:40:17;;;;;;;4.53;1.90;;;;;;;24.00;34.08;99478.34;4984735;28;20024;-43
2023/12/23 09:42:42;;;;;;;4.35;1.98;;;;;;;24.00;34.22;99475.59;4981175;28;20422;-41
2023/12/23 09:45:08;;;;;;;4.10;1.80;;;;;;;23.97;33.89;99479.34;4981979;28;20504;-42
2023/12/23 09:47:33;;;;;;;3.35;1.65;;;;;;;23.97;33.85;99476.59;4982731;28;20077;-41
2023/12/23 09:49:59;;;;;;;3.47;1.60;;;;;;;23.93;33.61;99487.06;4984606;28;20033;-41
2023/12/23 09:52:24;;;;;;;2.88;1.35;;;;;;;23.88;33.37;99493.28;4979476;28;20038;-41
2023/12/23 09:54:52;;;;;;;3.13;1.20;;;;;;;23.88;33.51;99498.81;4986633;28;20037;-46
2023/12/23 09:57:18;;;;;;;3.03;1.30;;;;;;;23.95;33.21;99490.09;5011418;28;20037;-41
2023/12/23 09:59:44;;;;;;;2.38;1.10;;;;;;;23.97;33.06;99493.13;4986682;28;20034;-42
2023/12/23 10:02:09;;;;;;;2.75;1.30;;;;;;;23.88;32.87;99490.53;5013473;28;20034;-43
2023/12/23 10:04:34;;;;;;;2.72;1.30;;;;;;;23.91;32.93;99489.56;4991496;28;20066;-42
2023/12/23 10:07:00;;;;;;;2.08;1.10;;;;;;;24.09;33.05;99491.19;4995842;28;20026;-44
2023/12/23 10:09:28;;;;;;;2.60;1.20;;;;;;;24.17;33.07;99487.50;4992154;28;20385;-41
2023/12/23 10:11:53;;;;;;;1.80;1.00;;;;;;;24.28;33.09;99498.63;4986027;28;20390;-42
2023/12/23 10:14:20;;;;;;;2.53;1.17;;;;;;;24.28;33.12;99490.34;5002294;28;20030;-42
2023/12/23 10:16:46;;;;;;;;;;;;;;;24.29;33.16;99475.31;4986213;28;20031;-42
2023/12/23 10:19:11;;;;;;;1.92;1.10;;;;;;;24.31;33.09;99474.81;4988674;28;19968;-47
2023/12/23 10:21:36;;;;;;;2.10;1.00;;;;;;;24.36;33.24;99469.34;4978970;28;20033;-43
2023/12/23 10:24:02;;;;;;;2.50;1.10;;;;;;;24.41;33.27;99467.09;4987555;28;20021;-47
2023/12/23 10:26:28;;;;;;;2.78;1.30;;;;;;;24.46;33.40;99477.41;4979108;28;20038;-46
2023/12/23 10:28:57;;;;;;;1.92;1.08;;;;;;;24.50;33.39;99475.16;4979671;28;20038;-46
2023/12/23 10:31:24;;;;;;;2.65;1.10;;;;;;;24.51;33.18;99474.69;4965066;28;20034;-46
2023/12/23 10:33:51;;;;;;;2.38;1.13;;;;;;;24.57;33.21;99474.72;5013542;28;20161;-47
2023/12/23 10:36:17;;;;;;;2.00;1.02;;;;;;;24.60;33.11;99462.66;4971768;28;20053;-46
2023/12/23 10:38:46;;;;;;;2.08;1.10;;;;;;;24.59;33.22;99478.47;4981115;28;20069;-49
2023/12/23 10:41:17;;;;;;;3.40;1.30;;;;;;;24.36;33.20;99465.81;4981482;28;20058;-47
2023/12/23 10:43:43;;;;;;;2.65;1.30;;;;;;;24.38;33.36;99466.06;4996017;28;20022;-48
2023/12/23 10:46:08;;;;;;;2.67;1.23;;;;;;;24.46;33.34;99467.13;4971737;28;20566;-45
2023/12/23 10:48:34;;;;;;;2.25;1.13;;;;;;;24.53;33.24;99466.66;4996109;28;20027;-46
2023/12/23 10:50:59;;;;;;;2.65;1.20;;;;;;;24.55;33.39;99466.91;5012528;28;20028;-45
2023/12/23 10:53:25;;;;;;;2.65;1.20;;;;;;;24.59;33.48;99463.91;5013988;28;20462;-45
2023/12/23 10:55:50;;;;;;;1.88;1.00;;;;;;;24.62;33.59;99466.44;5008016;28;20035;-46
2023/12/23 10:58:15;;;;;;;2.30;1.20;;;;;;;24.62;33.71;99471.19;4975003;28;20398;-47
2023/12/23 11:00:42;;;;;;;3.22;1.30;;;;;;;24.64;33.54;99471.47;4991595;28;20092;-48
2023/12/23 11:03:08;;;;;;;1.98;1.08;;;;;;;24.68;33.69;99467.22;4297102;28;9999843;-46
2023/12/23 11:05:33;;;;;;;2.72;1.10;;;;;;;24.71;33.59;99476.53;4985162;28;20068;-46
2023/12/23 11:08:00;;;;;;;2.97;1.10;;;;;;;24.72;33.57;99461.47;5013244;28;20030;-46
2023/12/23 11:10:25;;;;;;;2.30;1.20;;;;;;;24.71;33.72;99466.22;4981032;28;20030;-45
2023/12/23 11:12:51;;;;;;;3.67;1.88;;;;;;;24.72;33.83;99469.75;4978220;28;20068;-44
2023/12/23 11:15:17;;;;;;;10.80;7.32;;;;;;;24.77;34.04;99468.28;4977800;28;20125;-46
2023/12/23 11:17:43;;;;;;;12.00;8.20;;;;;;;24.82;33.89;99464.75;4992842;28;20035;-47
2023/12/23 11:20:10;;;;;;;13.77;10.75;;;;;;;24.85;34.15;99472.03;4982522;28;20041;-45
2023/12/23 11:22:38;;;;;;;16.83;13.10;;;;;;;24.90;34.04;99455.50;4966293;28;20038;-48
2023/12/23 11:25:11;;;;;;;15.90;13.43;;;;;;;24.90;33.95;99455.50;4974958;28;20285;-46
2023/12/23 11:27:37;;;;;;;18.35;15.05;;;;;;;24.93;34.01;99470.31;4981260;28;20035;-44